createdAt,value
2023-03-05T00:02:45.766Z,2.9
2023-03-05T00:09:05.630Z,2.9
2023-03-05T00:15:28.713Z,4.1
2023-03-05T00:21:48.654Z,4.1
2023-03-05T00:28:11.652Z,2.4
2023-03-05T00:34:31.641Z,2.4
2023-03-05T00:40:54.711Z,3.3
2023-03-05T00:47:14.623Z,3.3
2023-03-05T00:53:37.646Z,4.7
2023-03-05T00:59:57.796Z,4.7
2023-03-05T01:06:20.545Z,1.4
2023-03-05T01:12:40.581Z,1.4
2023-03-05T01:19:03.520Z,1.5
2023-03-05T01:25:23.704Z,1.5
2023-03-05T01:31:46.685Z,3.1
2023-03-05T01:38:06.727Z,3.1
2023-03-05T01:44:29.688Z,1.3
2023-03-05T01:50:49.678Z,1.3
2023-03-05T01:57:12.712Z,1.6
2023-03-05T02:03:32.677Z,1.6
2023-03-05T02:09:55.648Z,2
2023-03-05T02:16:15.678Z,2
2023-03-05T02:22:38.689Z,1.3
2023-03-05T02:28:58.578Z,1.3
2023-03-05T02:35:21.548Z,3.4
2023-03-05T02:41:41.620Z,3.4
2023-03-05T02:48:04.612Z,1.8
2023-03-05T02:54:24.789Z,1.8
2023-03-05T03:00:47.678Z,2.1
2023-03-05T03:07:07.656Z,2.1
2023-03-05T03:13:30.607Z,0.7
2023-03-05T03:19:50.815Z,0.7
2023-03-05T03:26:13.669Z,2.1
2023-03-05T03:32:33.719Z,2.1
2023-03-05T03:38:56.616Z,0.2
2023-03-05T03:45:16.688Z,0.2
2023-03-05T03:51:39.625Z,1.1
2023-03-05T03:57:59.644Z,1.1
2023-03-05T04:21:06.394Z,2.8
2023-03-05T04:27:26.492Z,2.8
2023-03-05T04:33:49.617Z,2.6
2023-03-05T04:40:09.579Z,2.6
2023-03-05T04:46:32.620Z,1.6
2023-03-05T04:52:52.569Z,1.6
2023-03-05T04:59:15.693Z,2.1
2023-03-05T05:05:35.550Z,2.1
2023-03-05T05:11:58.525Z,0.4
2023-03-05T05:18:18.575Z,0.4
2023-03-05T05:24:41.502Z,1
2023-03-05T05:31:01.494Z,1
2023-03-05T05:37:24.614Z,1.7
2023-03-05T05:43:44.485Z,1.7
2023-03-05T05:50:07.532Z,0.9
2023-03-05T05:56:27.652Z,0.9
2023-03-05T06:02:50.648Z,1.6
2023-03-05T06:09:10.676Z,1.6
2023-03-05T06:15:33.533Z,0.9
2023-03-05T06:21:53.521Z,0.9
2023-03-05T06:28:16.688Z,1
2023-03-05T06:34:36.618Z,1
2023-03-05T06:40:59.654Z,0.6
2023-03-05T06:47:19.529Z,0.6
2023-03-05T06:53:42.583Z,1.9
2023-03-05T07:00:02.580Z,1.9
2023-03-05T07:06:25.510Z,0.8
2023-03-05T07:12:45.636Z,0.8
2023-03-05T07:19:08.561Z,1.1
2023-03-05T07:25:28.665Z,1.1
2023-03-05T07:31:51.576Z,1.2
2023-03-05T07:38:11.487Z,1.2
2023-03-05T07:44:34.592Z,1.9
2023-03-05T07:50:54.542Z,1.9
2023-03-05T07:57:17.636Z,1
2023-03-05T08:03:37.513Z,1
2023-03-05T08:10:00.648Z,1.6
2023-03-05T08:16:20.833Z,1.6
2023-03-05T08:22:43.655Z,1.9
2023-03-05T08:29:03.808Z,1.9
2023-03-05T08:35:27.078Z,1.4
2023-03-05T08:41:46.667Z,1.4
2023-03-05T08:48:09.771Z,2.2
2023-03-05T08:54:29.720Z,2.2
2023-03-05T09:00:53.671Z,2.9
2023-03-05T09:23:24.476Z,2.8
2023-03-05T09:29:45.705Z,2.8
2023-03-05T09:36:08.759Z,2.5
2023-03-05T09:42:28.803Z,2.5
2023-03-05T09:48:51.563Z,1.8
2023-03-05T09:55:11.692Z,1.8
2023-03-05T10:01:34.551Z,5
2023-03-05T10:07:54.552Z,5
2023-03-05T10:14:17.698Z,4
2023-03-05T10:20:37.586Z,4
2023-03-05T10:27:00.831Z,2.5
2023-03-05T10:33:20.666Z,2.5
2023-03-05T10:39:43.572Z,2.7
2023-03-05T10:46:03.563Z,2.7
2023-03-05T10:52:26.513Z,2.9
2023-03-05T10:58:46.668Z,2.9
2023-03-05T11:05:09.608Z,2.5
2023-03-05T11:11:29.665Z,2.5
2023-03-05T11:17:52.636Z,2.4
2023-03-05T11:24:12.533Z,2.4
2023-03-05T11:30:35.882Z,1.4
2023-03-05T11:36:55.642Z,1.4
2023-03-05T11:43:18.525Z,4
2023-03-05T11:49:38.585Z,4
2023-03-05T11:56:01.688Z,3.9
2023-03-05T12:02:21.698Z,3.9
2023-03-05T12:08:45.141Z,4.8
2023-03-05T12:15:04.649Z,4.8
2023-03-05T12:21:27.639Z,3.7
2023-03-05T12:27:47.577Z,3.7
2023-03-05T12:34:10.669Z,5.8
2023-03-05T12:40:30.623Z,5.8
2023-03-05T12:46:53.643Z,4.8
2023-03-05T12:53:13.804Z,4.8
2023-03-05T12:59:36.572Z,5.1
2023-03-05T13:05:56.614Z,5.1
2023-03-05T13:12:19.595Z,6.2
2023-03-05T13:18:39.498Z,6.2
2023-03-05T13:25:02.529Z,5.7
2023-03-05T13:31:22.892Z,5.7
2023-03-05T13:37:45.515Z,3.5
2023-03-05T13:44:05.578Z,3.5
2023-03-05T13:50:28.617Z,6.4
2023-03-05T13:56:48.626Z,6.4
2023-03-05T14:03:11.598Z,3.5
2023-03-05T14:09:31.593Z,3.5
2023-03-05T14:15:54.611Z,5.2
2023-03-05T14:31:43.410Z,5.6
2023-03-05T14:38:03.547Z,5.6
2023-03-05T14:44:26.587Z,10.2
2023-03-05T14:50:46.641Z,10.2
2023-03-05T14:57:09.567Z,10.2
2023-03-05T15:03:29.634Z,10.2
2023-03-05T15:09:52.714Z,5.8
2023-03-05T15:16:12.744Z,5.8
2023-03-05T15:22:35.667Z,8.5
2023-03-05T15:35:18.591Z,4.7
2023-03-05T15:41:38.607Z,4.7
2023-03-05T15:48:01.816Z,4.5
2023-03-05T15:54:22.134Z,4.5
2023-03-05T16:00:45.635Z,3.1
2023-03-05T16:07:05.729Z,3.1
2023-03-05T16:13:28.614Z,3.4
2023-03-05T16:19:48.554Z,3.4
2023-03-05T16:26:11.751Z,5
2023-03-05T16:32:31.589Z,5
2023-03-05T16:38:54.701Z,3
2023-03-05T16:45:14.570Z,3
2023-03-05T16:51:37.659Z,3.5
2023-03-05T16:57:57.648Z,3.5
2023-03-05T17:04:20.685Z,2.7
2023-03-05T17:10:40.521Z,2.7
2023-03-05T17:17:03.609Z,3.5
2023-03-05T17:23:23.529Z,3.5
2023-03-05T17:29:46.520Z,4.7
2023-03-05T17:36:06.499Z,4.7
2023-03-05T17:42:29.598Z,5.7
2023-03-05T17:48:49.529Z,5.7
2023-03-05T17:55:12.532Z,3.8
2023-03-05T18:01:32.620Z,3.8
2023-03-05T18:07:55.605Z,4.7
2023-03-05T18:14:16.869Z,4.7
2023-03-05T18:20:38.632Z,4.1
2023-03-05T18:26:58.563Z,4.1
2023-03-05T18:33:21.666Z,6.3
2023-03-05T18:39:41.694Z,6.3
2023-03-05T18:46:04.639Z,5.4
2023-03-05T18:52:24.641Z,5.4
2023-03-05T18:58:47.624Z,4.4
2023-03-05T19:05:07.960Z,4.4
2023-03-05T19:11:30.502Z,5.8
2023-03-05T19:17:50.532Z,5.8
2023-03-05T19:41:31.517Z,8.1
2023-03-05T19:47:54.483Z,16.4
2023-03-05T19:54:14.492Z,16.4
2023-03-05T20:00:37.555Z,16.4
2023-03-05T20:06:57.498Z,16.4
2023-03-05T20:13:20.523Z,10.3
2023-03-05T20:19:40.591Z,10.3
2023-03-05T20:26:03.689Z,10.5
2023-03-05T20:32:23.606Z,10.5
2023-03-05T20:38:46.624Z,7.1
2023-03-05T20:45:06.659Z,7.1
2023-03-05T20:51:29.579Z,3.5
2023-03-05T20:57:49.643Z,3.5
2023-03-05T21:04:12.579Z,4.9
2023-03-05T21:10:32.619Z,4.9
2023-03-05T21:16:55.709Z,4.6
2023-03-05T21:23:15.579Z,4.6
2023-03-05T21:29:38.625Z,7
2023-03-05T21:35:58.677Z,7
2023-03-05T21:42:21.597Z,6.6
2023-03-05T21:48:41.571Z,6.6
2023-03-05T21:55:04.509Z,4.9
2023-03-05T22:01:24.676Z,4.9
2023-03-05T22:07:47.688Z,6.7
2023-03-05T22:14:07.603Z,6.7
2023-03-05T22:20:30.642Z,5.4
2023-03-05T22:26:50.610Z,5.4
2023-03-05T22:33:13.679Z,5.6
2023-03-05T22:39:33.631Z,5.6
2023-03-05T22:45:56.596Z,6.8
2023-03-05T22:52:16.797Z,6.8
2023-03-05T22:58:39.597Z,5.5
2023-03-05T23:22:53.610Z,17.4
2023-03-05T23:29:13.492Z,17.4
2023-03-05T23:35:36.647Z,17.4
2023-03-05T23:41:56.685Z,17.4
2023-03-05T23:48:19.631Z,8.8
2023-03-05T23:54:39.643Z,8.8
